Aeroporto :
LOGIN :

Iscrizione | Disclaimer

   EN    FR    IT 

 










Sommario :    VFR   VFR Marginale   IFR   IFR Intensivo   IFR Molto Intensivo
Visibilità : 
Base nubi : 
>= 8 km
>= 3000ft
5 / 8 km
1000 / 3000 ft
1500m / 5 km
500 / 1000 ft
800 / 1500m
200 / 500 ft
< 800m
< 200 ft
Simboli :   Temporali  Nebbia  Neve Forte  Precipitazioni Forti  Vento > 20 kt
SIGMETs :   Varie  Temporali  Ghiacco  Turbolenza  Onda orograficha  Ceneri Vulcaniche






- Altitudine del aeroporto : 468 ft
- Codice IATA : GRO


LEGE - Girona Costa Brava

ULTIMO METAR :
  • 072100Z 32004KT 290V350 CAVOK 09/07 Q1023

METARs OBSOLETI :
  • 072030Z 36004KT 330V040 CAVOK 09/08 Q1023
  • 072000Z 36005KT 330V030 CAVOK 09/07 Q1023
  • 071930Z 01005KT 330V030 CAVOK 09/07 Q1023
  • 071900Z 03004KT CAVOK 07/07 Q1023
  • 071830Z 00000KT CAVOK 07/06 Q1022
  • 071800Z 00000KT CAVOK 09/07 Q1022

TAF TAF LEGE
Valido dal 07 a 18 ore il 08 a 18 ore UTC


071700Z 0718/0818 VRB04KT 9999 FEW020 TX17/0813Z TN03/0806Z
TEMPO 0720/0808 2000 BR BKN010
PROB30
TEMPO 0800/0807 0150 FG VV001



MetMap, La meteo Aeronautica in un colpo d'occhio ! - Copyright ORBIFLY Dicembre 2007 - Disclaimer

ORBIFLY MET'MAP TEAM :

Programmazione e sviluppo : Alexandra Zaïnal
Concezione : Baudouin d'Aumeries
Aiuto per la programmazione : Marc-Olivier Méhu
Supporto tecnico e logistico : Manuel Goepfert
Aiuto per la traduzione : Arnaldo La Scala

Contatto : metmap@orbifly.com




FONTI E CREDITI :

   NOAA